Time;durP1;ratioP1;P1;durP2;ratioP2;P2;SDS_P1;SDS_P2;PMS_P1;PMS_P2;Temp;Humidity;BMP_temperature;BMP_pressure;BME280_temperature;BME280_humidity;BME280_pressure;Samples;Min_cycle;Max_cycle;Signal;HPM_P1;HPM_P2
2023/05/01 00:01:12;;;;;;;7.55;6.70;;;11.50;87.00;;;;;;4954886;29;20232;-76
2023/05/01 00:03:39;;;;;;;7.60;6.70;;;11.50;87.10;;;;;;4955535;29;20224;-75
2023/05/01 00:06:07;;;;;;;7.22;6.57;;;11.40;87.30;;;;;;4954984;28;20299;-75
2023/05/01 00:08:35;;;;;;;8.48;6.30;;;11.40;87.60;;;;;;4954931;29;20686;-75
2023/05/01 00:11:08;;;;;;;10.40;6.88;;;11.30;87.70;;;;;;4954627;29;20294;-75
2023/05/01 00:13:35;;;;;;;10.57;6.72;;;11.30;88.10;;;;;;4955512;29;20302;-75
2023/05/01 00:16:07;;;;;;;8.10;5.93;;;11.30;88.60;;;;;;4945713;29;20232;-75
2023/05/01 00:18:35;;;;;;;7.25;6.65;;;11.30;88.70;;;;;;4955386;29;20236;-76
2023/05/01 00:21:03;;;;;;;9.32;6.72;;;11.20;89.10;;;;;;4954233;29;20831;-76
2023/05/01 00:23:31;;;;;;;10.30;7.13;;;11.20;89.60;;;;;;4955174;29;20315;-76
2023/05/01 00:25:58;;;;;;;6.18;5.57;;;11.10;89.90;;;;;;4946702;29;20231;-76
2023/05/01 00:28:25;;;;;;;10.38;7.03;;;11.20;90.10;;;;;;4953538;29;20263;-76
2023/05/01 00:30:52;;;;;;;12.60;5.95;;;11.10;90.00;;;;;;4955232;29;20291;-76
2023/05/01 00:33:19;;;;;;;6.10;5.50;;;11.00;89.90;;;;;;4954316;29;20238;-76
2023/05/01 00:35:48;;;;;;;6.88;6.05;;;11.00;90.00;;;;;;4954825;28;20356;-75
2023/05/01 00:38:15;;;;;;;7.72;6.95;;;11.00;90.20;;;;;;4954690;29;20246;-75
2023/05/01 00:40:42;;;;;;;7.00;6.20;;;11.00;90.30;;;;;;4954532;29;20235;-75
2023/05/01 00:43:11;;;;;;;8.05;7.20;;;11.00;90.30;;;;;;4954474;29;20228;-76
2023/05/01 00:45:38;;;;;;;8.27;6.05;;;10.90;90.40;;;;;;4954847;28;20236;-76
2023/05/01 00:48:06;;;;;;;6.55;5.45;;;10.90;90.40;;;;;;4954329;29;20280;-75
2023/05/01 00:50:33;;;;;;;8.63;6.07;;;10.90;90.50;;;;;;4953947;29;20238;-76
2023/05/01 00:53:02;;;;;;;7.47;5.97;;;10.90;90.50;;;;;;4954253;29;20299;-75
2023/05/01 00:55:34;;;;;;;6.05;5.45;;;10.90;90.70;;;;;;4953493;28;20232;-75
2023/05/01 00:58:02;;;;;;;7.57;6.53;;;10.90;90.90;;;;;;4954817;29;20674;-75
2023/05/01 01:00:36;;;;;;;7.55;6.57;;;10.90;91.00;;;;;;4932471;28;20271;-75
2023/05/01 01:03:05;;;;;;;8.73;7.10;;;10.90;91.00;;;;;;4943756;28;20222;-75
2023/05/01 01:05:35;;;;;;;14.43;6.78;;;10.90;90.90;;;;;;4952018;28;20228;-75
2023/05/01 01:08:15;;;;;;;10.88;6.03;;;10.90;91.00;;;;;;4955114;29;20227;-75
2023/05/01 01:10:53;;;;;;;6.28;5.63;;;10.90;91.40;;;;;;4954261;29;20582;-76
2023/05/01 01:13:27;;;;;;;6.40;5.88;;;10.90;91.10;;;;;;4954678;29;20228;-76
2023/05/01 01:16:03;;;;;;;8.05;6.45;;;10.80;91.20;;;;;;4943453;28;20327;-76
2023/05/01 01:18:37;;;;;;;8.23;5.97;;;10.90;91.30;;;;;;4954724;29;20251;-76
2023/05/01 01:21:12;;;;;;;8.30;5.97;;;10.80;91.40;;;;;;4954231;29;20232;-75
2023/05/01 01:24:22;;;;;;;7.75;6.20;;;10.80;91.50;;;;;;4955035;28;20274;-76
2023/05/01 01:27:18;;;;;;;7.80;6.05;;;10.80;91.40;;;;;;4954276;29;20275;-76
2023/05/01 01:30:07;;;;;;;6.55;5.75;;;10.80;91.50;;;;;;4953780;29;20224;-76
2023/05/01 01:33:14;;;;;;;5.55;4.80;;;10.80;91.60;;;;;;4942842;29;20742;-76
2023/05/01 01:35:51;;;;;;;7.97;5.93;;;10.80;91.60;;;;;;4950029;28;20236;-76
2023/05/01 01:38:32;;;;;;;8.82;6.40;;;10.80;91.70;;;;;;4954446;29;20626;-76
2023/05/01 01:41:07;;;;;;;5.88;5.28;;;10.80;91.80;;;;;;4953336;29;20230;-76
2023/05/01 01:43:40;;;;;;;10.65;6.32;;;10.80;91.90;;;;;;4954198;29;20223;-77
2023/05/01 01:46:08;;;;;;;10.02;6.10;;;10.80;91.90;;;;;;4953672;28;20239;-77
2023/05/01 01:48:38;;;;;;;10.07;7.03;;;10.70;92.00;;;;;;4953209;29;20227;-77
2023/05/01 01:51:10;;;;;;;7.97;6.07;;;10.70;92.00;;;;;;4953498;29;20307;-77
2023/05/01 01:53:39;;;;;;;7.80;6.40;;;10.70;92.10;;;;;;4954098;29;20236;-75
2023/05/01 01:56:08;;;;;;;6.85;6.15;;;10.70;92.30;;;;;;4953153;28;20232;-76
2023/05/01 01:58:39;;;;;;;7.57;5.93;;;10.70;92.50;;;;;;4954413;29;20307;-75
2023/05/01 02:01:06;;;;;;;10.38;6.53;;;10.70;92.60;;;;;;4954304;29;20651;-75
2023/05/01 02:03:38;;;;;;;9.32;6.28;;;10.70;92.60;;;;;;4954327;29;20228;-75
2023/05/01 02:06:08;;;;;;;6.97;6.28;;;10.60;92.80;;;;;;4953189;28;20718;-75
2023/05/01 02:08:37;;;;;;;7.45;6.25;;;10.60;92.80;;;;;;4955129;28;20252;-75
2023/05/01 02:11:06;;;;;;;7.30;6.22;;;10.60;92.90;;;;;;4957253;29;20234;-75
2023/05/01 02:13:39;;;;;;;7.20;5.28;;;10.60;92.90;;;;;;4957877;29;20226;-76
2023/05/01 02:16:07;;;;;;;8.25;4.97;;;10.60;92.90;;;;;;4956463;28;20287;-76
2023/05/01 02:18:38;;;;;;;6.93;5.57;;;10.60;92.70;;;;;;4957294;29;20236;-76
2023/05/01 02:21:12;;;;;;;6.53;5.35;;;10.60;92.70;;;;;;4956653;29;20220;-76
2023/05/01 02:23:39;;;;;;;8.30;5.55;;;10.60;92.60;;;;;;4956418;29;20682;-76
2023/05/01 02:26:11;;;;;;;6.20;5.32;;;10.50;92.50;;;;;;4956970;29;20236;-76
2023/05/01 02:28:40;;;;;;;6.00;5.38;;;10.50;92.40;;;;;;4957199;29;20534;-75
2023/05/01 02:31:07;;;;;;;6.28;5.15;;;10.50;92.40;;;;;;4956797;29;20233;-78
2023/05/01 02:33:35;;;;;;;7.43;6.07;;;10.50;92.40;;;;;;4956917;29;20232;-76
2023/05/01 02:36:02;;;;;;;7.22;5.63;;;10.50;92.40;;;;;;4956585;28;20260;-76
2023/05/01 02:38:31;;;;;;;6.95;6.25;;;10.50;92.60;;;;;;4956455;29;20228;-76
2023/05/01 02:41:01;;;;;;;7.88;5.57;;;10.50;92.50;;;;;;4956099;29;20227;-76
2023/05/01 02:43:31;;;;;;;6.82;5.25;;;10.50;92.70;;;;;;4957028;29;20267;-76
2023/05/01 02:46:00;;;;;;;8.02;5.57;;;10.40;92.80;;;;;;4956577;28;20616;-76
2023/05/01 02:48:29;;;;;;;5.90;5.30;;;10.40;92.70;;;;;;4957068;29;20232;-75
2023/05/01 02:50:57;;;;;;;4.85;4.22;;;10.50;92.30;;;;;;4955932;29;20681;-76
2023/05/01 02:53:24;;;;;;;7.22;5.82;;;10.40;92.20;;;;;;4956465;29;20593;-76
2023/05/01 02:55:53;;;;;;;5.47;4.93;;;10.50;92.30;;;;;;4956554;28;20307;-75
2023/05/01 02:58:21;;;;;;;6.07;5.43;;;10.50;92.30;;;;;;4946052;29;20239;-76
2023/05/01 03:00:49;;;;;;;7.05;5.70;;;10.50;92.10;;;;;;4956391;29;20224;-76
2023/05/01 03:03:17;;;;;;;8.68;5.57;;;10.50;91.90;;;;;;4956187;29;20231;-76
2023/05/01 03:05:47;;;;;;;9.88;6.07;;;10.50;91.80;;;;;;4956728;28;20246;-76
2023/05/01 03:08:14;;;;;;;9.35;5.70;;;10.50;91.70;;;;;;4955994;29;20251;-76
2023/05/01 03:10:47;;;;;;;8.55;5.75;;;10.50;91.70;;;;;;4956388;29;20235;-76
2023/05/01 03:13:16;;;;;;;10.18;5.28;;;10.50;91.70;;;;;;4944969;29;20750;-76
2023/05/01 03:15:44;;;;;;;8.75;6.53;;;10.40;91.40;;;;;;4956083;28;20239;-76
2023/05/01 03:18:12;;;;;;;4.72;4.20;;;10.40;91.40;;;;;;4955619;29;20622;-76
2023/05/01 03:20:39;;;;;;;6.85;5.55;;;10.40;91.40;;;;;;4954171;28;20220;-76
2023/05/01 03:23:06;;;;;;;7.25;5.20;;;10.40;91.40;;;;;;4956669;29;20235;-76
2023/05/01 03:25:33;;;;;;;9.38;6.88;;;10.30;91.30;;;;;;4954459;29;20232;-76
2023/05/01 03:28:06;;;;;;;10.63;5.75;;;10.30;91.30;;;;;;4956265;29;20220;-76
2023/05/01 03:30:35;;;;;;;8.73;5.70;;;10.30;91.40;;;;;;4955598;29;20239;-75
2023/05/01 03:33:02;;;;;;;5.20;4.80;;;10.20;91.30;;;;;;4956540;29;20239;-75
2023/05/01 03:35:30;;;;;;;7.43;5.32;;;10.20;91.30;;;;;;4944660;29;20228;-75
2023/05/01 03:37:57;;;;;;;10.00;5.53;;;10.20;91.40;;;;;;4955937;28;20319;-76
2023/05/01 03:40:24;;;;;;;8.85;5.53;;;10.20;91.30;;;;;;4955601;29;20508;-76
2023/05/01 03:42:51;;;;;;;5.60;5.10;;;10.20;91.30;;;;;;4956430;29;20613;-76
2023/05/01 03:45:18;;;;;;;5.70;4.78;;;10.20;91.30;;;;;;4956033;28;20224;-76
2023/05/01 03:47:46;;;;;;;7.65;5.45;;;10.20;91.30;;;;;;4957761;29;20558;-76
2023/05/01 03:50:30;;;;;;;6.40;5.00;;;10.20;91.30;;;;;;4955845;29;20224;-76
2023/05/01 03:52:57;;;;;;;5.60;5.10;;;10.20;91.40;;;;;;4956812;29;20224;-76
2023/05/01 03:55:24;;;;;;;6.97;6.10;;;10.20;91.50;;;;;;4955972;28;20294;-76
2023/05/01 03:58:00;;;;;;;5.65;5.15;;;10.20;91.50;;;;;;4956827;29;20556;-76
2023/05/01 04:00:27;;;;;;;7.97;5.50;;;10.20;91.50;;;;;;4963801;29;20235;-75
2023/05/01 04:02:55;;;;;;;6.43;5.50;;;10.10;91.60;;;;;;4956475;29;20674;-75
2023/05/01 04:05:23;;;;;;;11.43;5.78;;;10.20;91.60;;;;;;4936093;29;20240;-77
2023/05/01 04:11:16;;;;;;;6.00;5.43;;;10.20;91.50;;;;;;4885160;29;20212;-75
2023/05/01 04:13:49;;;;;;;6.72;5.95;;;10.20;91.50;;;;;;4936911;29;20228;-76
2023/05/01 04:16:16;;;;;;;5.38;4.88;;;10.20;91.50;;;;;;4953943;28;20224;-76
2023/05/01 04:18:45;;;;;;;7.57;6.13;;;10.20;91.50;;;;;;4944913;29;20292;-77
2023/05/01 04:21:13;;;;;;;6.43;5.55;;;10.20;91.40;;;;;;4940489;29;20244;-77
2023/05/01 04:23:40;;;;;;;7.25;5.38;;;10.20;91.30;;;;;;4957257;29;20238;-76
2023/05/01 04:26:08;;;;;;;7.85;6.00;;;10.20;91.30;;;;;;4958408;28;20247;-77
2023/05/01 04:28:35;;;;;;;5.38;4.88;;;10.20;91.30;;;;;;4947107;28;20235;-76
2023/05/01 04:31:01;;;;;;;6.10;5.50;;;10.30;91.40;;;;;;4956629;28;20241;-76
2023/05/01 04:33:29;;;;;;;6.70;4.85;;;10.30;91.60;;;;;;4956933;28;20307;-76
2023/05/01 04:35:57;;;;;;;7.90;5.30;;;10.30;91.60;;;;;;4955251;28;20232;-76
2023/05/01 04:38:24;;;;;;;10.45;5.57;;;10.30;91.60;;;;;;4957128;28;20224;-77
2023/05/01 04:40:55;;;;;;;6.43;5.32;;;10.30;91.60;;;;;;4947936;29;20236;-76
2023/05/01 04:43:21;;;;;;;8.45;5.40;;;10.30;91.50;;;;;;4956532;28;20224;-76
2023/05/01 04:45:52;;;;;;;7.10;5.30;;;10.30;91.40;;;;;;4955959;29;20232;-76
2023/05/01 04:48:19;;;;;;;5.70;5.10;;;10.30;91.10;;;;;;4956477;29;20224;-76
2023/05/01 04:50:46;;;;;;;6.10;5.22;;;10.40;91.20;;;;;;4954927;28;20220;-76
2023/05/01 04:53:19;;;;;;;5.82;4.70;;;10.40;91.30;;;;;;4945622;28;20307;-76
2023/05/01 04:55:46;;;;;;;5.25;4.70;;;10.40;91.00;;;;;;4954489;29;20239;-76
2023/05/01 04:58:13;;;;;;;5.15;4.47;;;10.40;91.00;;;;;;4954593;29;20323;-76
2023/05/01 05:00:40;;;;;;;5.95;5.18;;;10.50;91.10;;;;;;4954855;29;20231;-75
2023/05/01 05:03:07;;;;;;;9.13;5.43;;;10.40;91.20;;;;;;4954919;29;20228;-76
2023/05/01 05:05:35;;;;;;;6.45;5.28;;;10.50;91.10;;;;;;4955234;29;20242;-76
2023/05/01 05:08:02;;;;;;;6.95;4.95;;;10.50;91.00;;;;;;4954672;28;20228;-75
2023/05/01 05:10:30;;;;;;;6.60;4.55;;;10.50;90.90;;;;;;4955464;29;20224;-76
2023/05/01 05:12:58;;;;;;;7.38;5.13;;;10.60;91.10;;;;;;4954953;28;20232;-75
2023/05/01 05:15:25;;;;;;;6.45;4.70;;;10.60;90.70;;;;;;4956168;29;20275;-75
2023/05/01 05:17:54;;;;;;;7.15;5.28;;;10.60;90.70;;;;;;4943871;29;20232;-76
2023/05/01 05:20:31;;;;;;;6.57;4.97;;;10.70;91.10;;;;;;4954488;29;20238;-75
2023/05/01 05:22:58;;;;;;;8.40;5.20;;;10.70;90.50;;;;;;4954179;29;20678;-76
2023/05/01 05:25:25;;;;;;;6.05;5.00;;;10.70;90.40;;;;;;4954253;29;20232;-75
2023/05/01 05:27:54;;;;;;;5.40;4.57;;;10.70;89.80;;;;;;4953929;29;20228;-75
2023/05/01 05:30:24;;;;;;;7.22;5.00;;;10.80;90.30;;;;;;4954536;29;20252;-76
2023/05/01 05:32:51;;;;;;;5.88;4.82;;;10.80;89.90;;;;;;4953205;29;20682;-77
2023/05/01 05:35:18;;;;;;;6.35;4.13;;;10.80;89.10;;;;;;4953741;29;20545;-76
2023/05/01 05:37:47;;;;;;;5.63;5.07;;;10.80;88.80;;;;;;4953878;29;20316;-76
2023/05/01 05:40:18;;;;;;;9.52;5.13;;;10.90;89.00;;;;;;4954034;29;20291;-75
2023/05/01 05:42:45;;;;;;;5.20;4.30;;;11.00;88.80;;;;;;4953492;28;20243;-76
2023/05/01 05:45:13;;;;;;;6.80;4.43;;;11.00;88.60;;;;;;4957285;29;20259;-77
2023/05/01 05:47:46;;;;;;;5.00;4.50;;;11.00;88.50;;;;;;4958080;29;20323;-76
2023/05/01 05:50:13;;;;;;;6.50;5.07;;;11.10;88.60;;;;;;4956480;29;20245;-76
2023/05/01 05:52:40;;;;;;;5.95;4.80;;;11.10;88.10;;;;;;4957592;28;20686;-76
2023/05/01 05:55:08;;;;;;;7.32;4.57;;;11.20;88.00;;;;;;4956979;29;20239;-77
2023/05/01 05:57:36;;;;;;;5.70;4.82;;;11.20;86.40;;;;;;4957452;29;20559;-75
2023/05/01 06:00:04;;;;;;;7.97;4.80;;;11.30;86.70;;;;;;4956960;29;20319;-76
2023/05/01 06:02:34;;;;;;;5.22;3.70;;;11.30;86.10;;;;;;4957364;28;20251;-75
2023/05/01 06:05:01;;;;;;;4.97;4.35;;;11.30;86.20;;;;;;4956580;29;20319;-77
2023/05/01 06:07:28;;;;;;;5.88;4.22;;;11.30;86.10;;;;;;4957695;29;20686;-76
2023/05/01 06:10:00;;;;;;;6.75;4.95;;;11.40;85.90;;;;;;4957126;29;20299;-76
2023/05/01 06:12:28;;;;;;;5.90;4.43;;;11.40;86.20;;;;;;4957765;29;20749;-76
2023/05/01 06:14:56;;;;;;;11.45;4.95;;;11.40;85.70;;;;;;4956078;29;20240;-77
2023/05/01 06:17:24;;;;;;;5.95;4.20;;;11.40;85.30;;;;;;4957527;29;20220;-76
2023/05/01 06:19:52;;;;;;;5.10;4.60;;;11.50;85.20;;;;;;4957160;29;20232;-77
2023/05/01 06:22:19;;;;;;;8.27;4.78;;;11.60;85.00;;;;;;4956683;29;20611;-76
2023/05/01 06:24:46;;;;;;;10.70;5.10;;;11.60;85.00;;;;;;4957104;29;20228;-76
2023/05/01 06:27:14;;;;;;;8.05;4.55;;;11.80;84.90;;;;;;4956066;29;20228;-76
2023/05/01 06:29:41;;;;;;;11.73;6.55;;;11.80;84.50;;;;;;4956967;29;20556;-75
2023/05/01 06:32:08;;;;;;;8.45;5.50;;;11.90;84.30;;;;;;4956432;29;20236;-76
2023/05/01 06:34:35;;;;;;;8.20;6.25;;;12.00;83.60;;;;;;4947097;29;20299;-75
2023/05/01 06:37:04;;;;;;;5.28;4.20;;;12.10;83.90;;;;;;4956082;29;20227;-76
2023/05/01 06:39:31;;;;;;;10.43;5.45;;;12.20;84.00;;;;;;4957083;29;20247;-76
2023/05/01 06:41:58;;;;;;;5.30;4.80;;;12.30;83.70;;;;;;4946756;29;20228;-76
2023/05/01 06:44:25;;;;;;;8.45;4.57;;;12.50;83.70;;;;;;4956096;28;20224;-76
2023/05/01 06:46:52;;;;;;;6.30;4.45;;;12.60;83.70;;;;;;4956961;29;20228;-77
2023/05/01 06:49:19;;;;;;;5.35;4.75;;;12.70;83.60;;;;;;4956030;29;20231;-76
2023/05/01 06:51:48;;;;;;;6.13;5.53;;;12.80;83.20;;;;;;4956950;29;20236;-76
2023/05/01 06:54:16;;;;;;;6.10;4.70;;;12.90;83.30;;;;;;4955112;28;20228;-76
2023/05/01 06:56:44;;;;;;;5.18;4.22;;;13.00;82.90;;;;;;4956618;29;20232;-75
2023/05/01 06:59:11;;;;;;;6.00;4.40;;;13.10;81.80;;;;;;4956152;29;20234;-76
2023/05/01 07:01:42;;;;;;;6.53;4.60;;;13.20;81.60;;;;;;4956407;29;20966;-76
2023/05/01 07:04:09;;;;;;;8.88;4.65;;;13.30;81.60;;;;;;4955925;29;20502;-77
2023/05/01 07:06:37;;;;;;;4.75;3.92;;;13.40;81.20;;;;;;4956333;29;20236;-77
2023/05/01 07:09:04;;;;;;;7.63;4.57;;;13.50;81.00;;;;;;4956392;29;20315;-77
2023/05/01 07:11:34;;;;;;;7.60;4.43;;;13.60;81.50;;;;;;4956007;29;20518;-76
2023/05/01 07:14:01;;;;;;;5.40;3.80;;;13.70;80.00;;;;;;4956247;29;20992;-76
2023/05/01 07:16:28;;;;;;;4.50;4.10;;;13.80;80.20;;;;;;4955989;29;20460;-77
2023/05/01 07:19:00;;;;;;;3.83;3.53;;;13.90;79.60;;;;;;4956210;29;20499;-76
2023/05/01 07:21:27;;;;;;;4.93;4.17;;;14.10;79.40;;;;;;4955774;29;21851;-76
2023/05/01 07:23:54;;;;;;;7.33;4.40;;;14.20;78.60;;;;;;4956120;29;20475;-76
2023/05/01 07:26:20;;;;;;;6.40;4.30;;;14.40;77.60;;;;;;4955128;28;20480;-76
2023/05/01 07:28:49;;;;;;;5.40;4.10;;;14.50;77.60;;;;;;4955067;29;20486;-76
2023/05/01 07:31:16;;;;;;;4.97;4.20;;;14.60;76.50;;;;;;4955863;29;20538;-77
2023/05/01 07:33:44;;;;;;;5.30;3.80;;;14.70;76.40;;;;;;4956009;29;20545;-75
2023/05/01 07:36:11;;;;;;;5.10;4.00;;;14.80;76.30;;;;;;4955783;29;20559;-76
2023/05/01 07:38:39;;;;;;;7.70;4.50;;;14.80;75.20;;;;;;4955778;29;20480;-74
2023/05/01 07:41:06;;;;;;;7.87;4.80;;;14.90;75.00;;;;;;4955547;29;20467;-77
2023/05/01 07:43:33;;;;;;;6.47;5.20;;;15.10;75.10;;;;;;4955347;29;20511;-76
2023/05/01 07:46:04;;;;;;;5.57;4.33;;;15.30;76.00;;;;;;4955800;29;20479;-76
2023/05/01 07:48:32;;;;;;;4.20;3.80;;;15.40;76.30;;;;;;4955496;29;20754;-76
2023/05/01 07:51:02;;;;;;;4.23;3.83;;;15.50;74.30;;;;;;4956018;29;20472;-75
2023/05/01 07:53:30;;;;;;;3.70;3.27;;;15.60;73.80;;;;;;4955420;29;21049;-76
2023/05/01 07:56:06;;;;;;;7.27;4.73;;;15.70;72.80;;;;;;4955198;29;20486;-76
2023/05/01 07:58:34;;;;;;;5.20;4.70;;;15.80;72.50;;;;;;4955110;29;20463;-76
2023/05/01 08:01:03;;;;;;;4.43;3.40;;;15.80;72.20;;;;;;4955172;29;20472;-76
2023/05/01 08:03:30;;;;;;;5.53;3.00;;;15.90;72.20;;;;;;4954893;29;20468;-75
2023/05/01 08:06:05;;;;;;;7.53;4.80;;;16.00;71.40;;;;;;4954125;28;20484;-77
2023/05/01 08:08:32;;;;;;;7.73;4.27;;;16.00;71.20;;;;;;4937841;29;20977;-76
2023/05/01 08:10:59;;;;;;;6.00;4.13;;;16.10;71.00;;;;;;4955392;29;20882;-75
2023/05/01 08:13:26;;;;;;;4.00;3.23;;;16.30;71.00;;;;;;4954752;29;20832;-75
2023/05/01 08:15:53;;;;;;;7.17;3.50;;;16.40;70.70;;;;;;4955318;29;20504;-75
2023/05/01 08:18:22;;;;;;;4.03;3.60;;;16.50;70.50;;;;;;4954889;29;20479;-75
2023/05/01 08:20:49;;;;;;;6.43;4.07;;;16.50;69.90;;;;;;4955024;29;20468;-75
2023/05/01 08:23:17;;;;;;;4.50;4.03;;;16.50;68.80;;;;;;4954824;29;20551;-75
2023/05/01 08:25:50;;;;;;;8.00;3.90;;;16.60;69.40;;;;;;4955101;29;21009;-75
2023/05/01 08:28:19;;;;;;;4.07;3.57;;;16.60;68.20;;;;;;4954415;29;20559;-75
2023/05/01 08:30:47;;;;;;;7.50;3.33;;;16.60;68.60;;;;;;4955517;29;20496;-76
2023/05/01 08:33:15;;;;;;;5.10;3.53;;;16.60;68.30;;;;;;4954594;29;20480;-76
2023/05/01 08:35:43;;;;;;;5.13;3.27;;;16.60;67.80;;;;;;4954856;29;20872;-75
2023/05/01 08:38:11;;;;;;;4.23;2.93;;;16.60;67.30;;;;;;4954969;29;20511;-74
2023/05/01 08:40:41;;;;;;;4.17;3.47;;;16.70;67.20;;;;;;4954293;29;20559;-77
2023/05/01 08:43:08;;;;;;;6.50;3.37;;;16.60;66.70;;;;;;4954937;29;20482;-76
2023/05/01 08:45:38;;;;;;;3.40;2.80;;;16.80;66.60;;;;;;4954270;29;20813;-76
2023/05/01 08:48:10;;;;;;;5.70;3.03;;;16.80;65.20;;;;;;4954550;29;20486;-76
2023/05/01 08:50:39;;;;;;;4.17;3.10;;;16.90;65.60;;;;;;4954361;29;21004;-76
2023/05/01 08:53:09;;;;;;;4.80;2.83;;;16.90;65.50;;;;;;4955144;29;20534;-75
2023/05/01 08:55:37;;;;;;;5.93;3.90;;;17.10;66.10;;;;;;4954373;29;20480;-76
2023/05/01 08:58:07;;;;;;;3.60;2.80;;;17.10;66.20;;;;;;4954842;29;20488;-75
2023/05/01 09:00:37;;;;;;;7.30;3.77;;;17.10;65.20;;;;;;4954259;29;20472;-76
2023/05/01 09:03:05;;;;;;;4.13;3.23;;;17.20;65.80;;;;;;4955001;29;20476;-75
2023/05/01 09:05:33;;;;;;;6.10;3.70;;;17.20;65.10;;;;;;4954110;29;20475;-76
2023/05/01 09:08:03;;;;;;;4.53;3.50;;;17.20;63.60;;;;;;4954987;29;20552;-75
2023/05/01 09:10:34;;;;;;;4.33;2.70;;;17.20;63.30;;;;;;4953135;29;20479;-75
2023/05/01 09:13:05;;;;;;;5.57;3.47;;;17.10;62.60;;;;;;4955178;29;20482;-75
2023/05/01 09:15:33;;;;;;;3.47;2.90;;;17.00;61.90;;;;;;4953516;29;20566;-76
2023/05/01 09:18:01;;;;;;;6.70;3.47;;;17.00;61.50;;;;;;4956044;28;20496;-76
2023/05/01 09:20:29;;;;;;;3.80;2.90;;;17.00;62.50;;;;;;4947531;29;20499;-75
2023/05/01 09:22:57;;;;;;;4.03;3.00;;;17.00;61.80;;;;;;4958946;29;20467;-76
2023/05/01 09:25:24;;;;;;;3.60;2.87;;;17.10;62.40;;;;;;4958769;29;20539;-76
2023/05/01 09:27:52;;;;;;;7.20;2.90;;;17.10;64.50;;;;;;4950191;29;20471;-76
2023/05/01 09:30:33;;;;;;;4.30;2.97;;;17.20;62.80;;;;;;4958644;29;20535;-75
2023/05/01 09:33:08;;;;;;;3.87;2.97;;;17.20;60.80;;;;;;4957850;29;20456;-76
2023/05/01 09:35:52;;;;;;;3.73;2.73;;;17.30;61.50;;;;;;4958549;29;20787;-76
2023/05/01 09:38:20;;;;;;;3.53;3.07;;;17.40;62.00;;;;;;4957574;29;20479;-76
2023/05/01 09:40:47;;;;;;;3.30;3.00;;;17.40;61.00;;;;;;4958341;29;20471;-75
2023/05/01 09:43:25;;;;;;;6.67;3.17;;;17.50;60.60;;;;;;4957961;29;20475;-76
2023/05/01 09:46:04;;;;;;;4.00;3.57;;;17.50;60.80;;;;;;4957617;29;20472;-75
2023/05/01 09:48:31;;;;;;;7.80;3.60;;;17.50;60.60;;;;;;4957849;29;20476;-76
2023/05/01 09:50:58;;;;;;;5.63;3.50;;;17.60;60.60;;;;;;4958279;29;20464;-76
2023/05/01 09:53:44;;;;;;;4.40;3.20;;;17.60;59.90;;;;;;4957850;29;20475;-76
2023/05/01 09:56:11;;;;;;;3.50;2.93;;;17.60;60.60;;;;;;4948873;29;20550;-75
2023/05/01 09:58:40;;;;;;;4.87;2.97;;;17.70;61.00;;;;;;4957184;29;20474;-77
2023/05/01 10:01:07;;;;;;;5.30;4.00;;;17.70;60.20;;;;;;4957474;29;20475;-75
2023/05/01 10:03:35;;;;;;;7.10;3.30;;;17.90;60.90;;;;;;4957693;29;20467;-75
2023/05/01 10:06:03;;;;;;;3.73;2.90;;;17.90;60.70;;;;;;4947536;28;20866;-76
2023/05/01 10:08:46;;;;;;;5.40;4.90;;;18.00;61.70;;;;;;4957104;29;20486;-76
2023/05/01 10:11:16;;;;;;;5.77;4.07;;;18.10;61.90;;;;;;4957555;29;20464;-75
2023/05/01 10:13:45;;;;;;;5.67;4.60;;;18.20;62.80;;;;;;4957182;29;20542;-75
2023/05/01 10:16:29;;;;;;;4.10;2.93;;;18.30;61.90;;;;;;4958015;29;20479;-76
2023/05/01 10:18:57;;;;;;;4.50;3.93;;;18.30;60.80;;;;;;4958125;29;20862;-75
2023/05/01 10:21:24;;;;;;;5.10;4.40;;;18.40;60.90;;;;;;4956987;29;20492;-75
2023/05/01 10:23:58;;;;;;;5.07;4.03;;;18.50;61.60;;;;;;4957578;29;20541;-76
2023/05/01 10:26:26;;;;;;;5.00;4.50;;;18.50;62.30;;;;;;4947449;28;20519;-75
2023/05/01 10:28:57;;;;;;;4.40;4.00;;;18.50;61.70;;;;;;4956506;28;20486;-74
2023/05/01 10:31:28;;;;;;;4.57;4.10;;;18.60;61.40;;;;;;4956840;29;20812;-77
2023/05/01 10:34:00;;;;;;;6.40;3.50;;;18.60;62.50;;;;;;4957299;29;20566;-76
2023/05/01 10:36:35;;;;;;;6.50;4.10;;;18.70;61.40;;;;;;4956644;29;20587;-75
2023/05/01 10:39:02;;;;;;;7.53;4.13;;;18.70;62.00;;;;;;4956735;29;20479;-75
2023/05/01 10:42:02;;;;;;;4.50;4.10;;;18.70;61.10;;;;;;4955921;29;20558;-76
2023/05/01 10:44:32;;;;;;;6.87;3.63;;;18.60;59.90;;;;;;4956741;29;20463;-76
2023/05/01 10:47:18;;;;;;;4.23;3.83;;;18.60;60.20;;;;;;4957142;29;20463;-77
2023/05/01 10:50:07;;;;;;;4.33;3.53;;;18.60;61.20;;;;;;4956853;28;20575;-76
2023/05/01 10:53:07;;;;;;;4.80;4.20;;;18.70;61.80;;;;;;4956960;29;20523;-76
2023/05/01 10:55:36;;;;;;;7.33;4.93;;;18.70;61.50;;;;;;4956043;28;20990;-76
2023/05/01 10:58:05;;;;;;;4.23;3.37;;;18.70;61.80;;;;;;4956188;28;20464;-76
2023/05/01 11:00:34;;;;;;;5.93;3.50;;;18.80;61.50;;;;;;4956484;29;20511;-76
2023/05/01 11:03:43;;;;;;;3.93;3.53;;;18.80;60.70;;;;;;4956956;29;20464;-76
2023/05/01 11:06:12;;;;;;;4.60;3.73;;;18.90;61.30;;;;;;4946374;28;20480;-76
2023/05/01 11:08:39;;;;;;;5.27;3.60;;;19.00;60.10;;;;;;4956626;29;20486;-76
2023/05/01 11:11:40;;;;;;;4.67;3.10;;;19.00;59.20;;;;;;4956785;29;20530;-76
2023/05/01 11:14:09;;;;;;;3.50;3.20;;;19.00;58.90;;;;;;4956225;28;20539;-76
2023/05/01 11:16:52;;;;;;;4.93;3.90;;;18.90;58.70;;;;;;4955542;29;20483;-76
2023/05/01 11:19:49;;;;;;;5.10;4.60;;;18.90;58.90;;;;;;4956395;29;20600;-76
2023/05/01 11:22:17;;;;;;;5.03;3.60;;;18.90;59.40;;;;;;4955508;29;20850;-76
2023/05/01 11:24:44;;;;;;;6.03;3.77;;;18.90;59.90;;;;;;4956085;29;20491;-75
2023/05/01 11:27:15;;;;;;;4.87;3.33;;;18.90;59.10;;;;;;4954841;29;20614;-75
2023/05/01 11:29:48;;;;;;;3.80;2.97;;;18.90;59.10;;;;;;4956444;29;20487;-75
2023/05/01 11:32:25;;;;;;;6.80;4.53;;;18.90;58.80;;;;;;4956185;29;20476;-74
2023/05/01 11:34:53;;;;;;;4.87;3.53;;;18.90;58.10;;;;;;4955445;29;20487;-77
2023/05/01 11:37:40;;;;;;;4.83;4.00;;;18.90;58.20;;;;;;4955723;29;20464;-77
2023/05/01 11:40:20;;;;;;;6.07;5.03;;;18.90;58.00;;;;;;4945650;29;20471;-76
2023/05/01 11:42:49;;;;;;;6.63;3.60;;;18.90;58.70;;;;;;4954981;29;20472;-75
2023/05/01 11:45:16;;;;;;;7.20;4.10;;;19.00;59.30;;;;;;4955330;29;20483;-77
2023/05/01 11:47:46;;;;;;;6.27;4.80;;;19.10;58.50;;;;;;4956190;29;20982;-75
2023/05/01 11:50:14;;;;;;;4.23;3.83;;;19.10;58.20;;;;;;4955821;29;20500;-75
2023/05/01 11:52:47;;;;;;;8.93;3.73;;;19.20;58.30;;;;;;4957169;29;20536;-76
2023/05/01 11:55:17;;;;;;;4.13;3.70;;;19.20;57.90;;;;;;4955971;29;20863;-75
2023/05/01 11:57:52;;;;;;;6.27;4.07;;;19.30;57.10;;;;;;4957098;29;20471;-76
2023/05/01 12:00:28;;;;;;;6.97;3.77;;;19.30;57.00;;;;;;4956277;29;20471;-76
2023/05/01 12:03:05;;;;;;;6.10;3.50;;;19.50;57.30;;;;;;5081477;27;20570;-75
2023/05/01 12:05:34;;;;;;;4.53;3.90;;;19.50;57.60;;;;;;5072024;28;20466;-75
2023/05/01 12:08:17;;;;;;;8.13;4.70;;;19.60;57.60;;;;;;5071584;28;20980;-76
2023/05/01 12:10:45;;;;;;;8.13;4.43;;;19.50;57.90;;;;;;5072543;28;20462;-75
2023/05/01 12:13:13;;;;;;;4.83;4.33;;;19.60;58.80;;;;;;5073288;28;20482;-76
2023/05/01 12:15:46;;;;;;;4.60;4.20;;;19.60;59.20;;;;;;5066539;28;20571;-75
2023/05/01 12:18:15;;;;;;;4.60;4.20;;;19.60;59.40;;;;;;5071835;28;20469;-74
2023/05/01 12:20:44;;;;;;;7.50;4.10;;;19.60;59.30;;;;;;5072054;28;20497;-77
2023/05/01 12:23:14;;;;;;;7.10;4.60;;;19.60;57.90;;;;;;5071064;28;20538;-77
2023/05/01 12:25:49;;;;;;;8.10;3.27;;;19.60;57.80;;;;;;5070506;28;20475;-77
2023/05/01 12:28:19;;;;;;;6.60;4.37;;;19.60;57.20;;;;;;5074109;28;20457;-74
2023/05/01 12:30:47;;;;;;;7.40;3.83;;;19.60;57.20;;;;;;5073148;28;20466;-76
2023/05/01 12:33:18;;;;;;;5.23;4.10;;;19.60;57.20;;;;;;5070847;28;20455;-76
2023/05/01 12:35:49;;;;;;;5.93;4.57;;;19.50;57.30;;;;;;5073936;28;20514;-77
2023/05/01 12:38:18;;;;;;;3.77;3.43;;;19.60;57.40;;;;;;5074656;28;20466;-77
2023/05/01 12:40:54;;;;;;;5.70;3.70;;;19.60;57.60;;;;;;5071578;28;20485;-75
2023/05/01 12:43:22;;;;;;;4.47;4.03;;;19.60;57.80;;;;;;5072498;28;20982;-75
2023/05/01 12:45:54;;;;;;;4.90;4.10;;;19.60;57.70;;;;;;5074682;28;20470;-75
2023/05/01 12:48:23;;;;;;;4.90;4.27;;;19.60;58.00;;;;;;5075412;28;20447;-76
2023/05/01 12:50:53;;;;;;;5.20;4.10;;;19.60;58.00;;;;;;5072175;28;20476;-76
2023/05/01 12:53:21;;;;;;;6.23;4.83;;;19.60;57.80;;;;;;5069258;28;20470;-76
2023/05/01 12:55:49;;;;;;;3.97;3.60;;;19.70;58.10;;;;;;5068753;28;20477;-75
2023/05/01 12:58:17;;;;;;;5.03;4.53;;;19.70;57.60;;;;;;5069226;28;20526;-75
2023/05/01 13:00:45;;;;;;;5.47;4.97;;;19.70;57.60;;;;;;5068914;28;20454;-76
2023/05/01 13:03:15;;;;;;;5.33;4.73;;;19.80;57.20;;;;;;5068412;28;20467;-76
2023/05/01 13:05:58;;;;;;;6.40;4.40;;;19.80;57.20;;;;;;5069049;28;21023;-76